Rinard, Illinois
Current Conditions -  °F | °C
As of 9:15 PM on Thursday 18 Dec 2014 (Local Time) from KFOA Reporting Station
Clear Clear  
Wind Chill: 31°   Ceiling: Unl
Heat Index: 31°   Visibility: 10mi
Dew Point: 26°   Wind: 3mph
Humidity: 80%   Direction: 20°NNE
Pressure: 30.29"   Gusts: NA
Location:  38.57°N, 88.47°W
Report Text: KFOA 190315Z AUTO 02003KT 10SM CLR 00/M04 A3029 RMK AO2 T10051036
Loading
Personal Weather Stations






























Interactive Weather Map New forecast layout! Learn more

10-Day Weather Forecast

Advertisements
Track Severe Weather on mobile